createdAt,value
2022-07-31T00:02:42.862Z,96311.06
2022-07-31T00:09:53.276Z,96313.00
2022-07-31T00:16:57.681Z,96316.91
2022-07-31T00:23:59.916Z,96309.00
2022-07-31T00:31:03.793Z,96299.84
2022-07-31T00:38:26.256Z,96297.28
2022-07-31T00:45:31.736Z,96294.59
2022-07-31T00:52:39.432Z,96294.78
2022-07-31T00:59:43.925Z,96300.66
2022-07-31T01:06:46.129Z,96297.41
2022-07-31T01:13:51.127Z,96292.00
2022-07-31T01:20:53.377Z,96295.44
2022-07-31T01:28:01.416Z,96285.91
2022-07-31T01:35:06.596Z,96289.06
2022-07-31T01:42:08.968Z,96287.91
2022-07-31T01:49:11.866Z,96285.72
2022-07-31T01:56:18.113Z,96281.25
2022-07-31T02:03:20.664Z,96287.78
2022-07-31T02:10:47.814Z,96284.72
2022-07-31T02:17:51.899Z,96273.16
2022-07-31T02:25:14.830Z,96274.00
2022-07-31T02:32:17.387Z,96271.19
2022-07-31T02:39:25.554Z,96274.84
2022-07-31T02:46:31.912Z,96268.97
2022-07-31T02:53:34.217Z,96270.22
2022-07-31T03:00:39.739Z,96259.47
2022-07-31T03:07:42.226Z,96264.75
2022-07-31T03:14:44.920Z,96270.84
2022-07-31T03:21:48.486Z,96274.91
2022-07-31T03:28:50.743Z,96260.28
2022-07-31T03:35:55.204Z,96254.13
2022-07-31T03:42:58.724Z,96261.66
2022-07-31T03:50:03.558Z,96263.81
2022-07-31T03:57:08.371Z,96262.78
2022-07-31T04:04:13.473Z,96278.31
2022-07-31T04:11:33.004Z,96278.09
2022-07-31T04:18:35.246Z,96276.50
2022-07-31T04:25:38.891Z,96280.22
2022-07-31T04:33:04.214Z,96280.50
2022-07-31T04:40:10.692Z,96273.88
2022-07-31T04:47:14.311Z,96280.66
2022-07-31T04:54:22.113Z,96283.63
2022-07-31T05:01:25.460Z,96287.03
2022-07-31T05:08:29.098Z,96304.41
2022-07-31T05:15:31.400Z,96293.72
2022-07-31T05:22:33.751Z,96289.97
2022-07-31T05:30:10.903Z,96292.72
2022-07-31T05:37:13.442Z,96287.47
2022-07-31T05:44:16.682Z,96286.03
2022-07-31T05:51:23.123Z,96284.31
2022-07-31T05:58:25.478Z,96296.56
2022-07-31T06:05:28.000Z,96301.59
2022-07-31T06:12:31.527Z,96298.00
2022-07-31T06:19:36.252Z,96306.47
2022-07-31T06:26:41.753Z,96305.88
2022-07-31T06:33:47.335Z,96312.63
2022-07-31T06:40:51.540Z,96303.00
2022-07-31T06:48:02.164Z,96317.69
2022-07-31T06:55:16.733Z,96329.78
2022-07-31T07:02:19.229Z,96318.38
2022-07-31T07:09:21.561Z,96326.72
2022-07-31T07:16:28.043Z,96321.66
2022-07-31T07:23:30.415Z,96314.13
2022-07-31T07:30:50.841Z,96315.31
2022-07-31T07:37:55.499Z,96312.28
2022-07-31T07:44:59.962Z,96316.09
2022-07-31T07:52:04.090Z,96320.00
2022-07-31T07:59:16.213Z,96314.81
2022-07-31T08:06:50.720Z,96319.72
2022-07-31T08:13:55.745Z,96317.03
2022-07-31T08:21:39.400Z,96314.44
2022-07-31T08:28:41.807Z,96312.06
2022-07-31T08:35:53.776Z,96322.22
2022-07-31T08:42:57.987Z,96316.34
2022-07-31T08:50:05.329Z,96310.19
2022-07-31T08:57:12.715Z,96308.94
2022-07-31T09:04:18.822Z,96303.47
2022-07-31T09:11:21.164Z,96306.63
2022-07-31T09:18:43.674Z,96300.47
2022-07-31T09:25:56.382Z,96297.28
2022-07-31T09:33:12.877Z,96295.38
2022-07-31T09:40:57.182Z,96282.00
2022-07-31T09:48:08.170Z,96284.75
2022-07-31T09:55:15.495Z,96284.31
2022-07-31T10:02:20.945Z,96279.06
2022-07-31T10:09:24.955Z,96260.69
2022-07-31T10:16:31.652Z,96257.47
2022-07-31T10:23:55.288Z,96263.16
2022-07-31T10:30:58.019Z,96255.16
2022-07-31T10:38:03.804Z,96253.84
2022-07-31T10:45:26.968Z,96243.78
2022-07-31T10:52:46.085Z,96242.56
2022-07-31T10:59:51.227Z,96239.66
2022-07-31T11:07:24.002Z,96231.03
2022-07-31T11:14:42.015Z,96222.13
2022-07-31T11:22:31.681Z,96217.16
2022-07-31T11:29:58.837Z,96226.34
2022-07-31T11:36:59.536Z,96213.31
2022-07-31T11:44:03.304Z,96198.22
2022-07-31T11:51:06.948Z,96191.47
2022-07-31T11:58:10.658Z,96178.41
2022-07-31T12:05:15.376Z,96183.69
2022-07-31T12:12:22.311Z,96165.22
2022-07-31T12:19:30.492Z,96171.22
2022-07-31T12:26:39.598Z,96163.41
2022-07-31T12:33:43.486Z,96161.19
2022-07-31T12:40:48.219Z,96143.94
2022-07-31T12:47:53.385Z,96121.63
2022-07-31T12:54:58.176Z,96135.75
2022-07-31T13:02:00.978Z,96131.63
2022-07-31T13:09:05.745Z,96123.75
2022-07-31T13:16:12.663Z,96118.97
2022-07-31T13:23:14.888Z,96109.47
2022-07-31T13:30:17.171Z,96104.75
2022-07-31T13:37:20.813Z,96092.88
2022-07-31T13:44:23.069Z,96080.13
2022-07-31T13:51:28.895Z,96079.72
2022-07-31T13:58:32.862Z,96071.03
2022-07-31T14:05:40.056Z,96058.69
2022-07-31T14:12:43.021Z,96066.16
2022-07-31T14:19:46.662Z,96049.94
2022-07-31T14:26:48.870Z,96050.53
2022-07-31T14:33:51.195Z,96044.50
2022-07-31T14:40:54.823Z,96028.47
2022-07-31T14:47:57.141Z,96021.59
2022-07-31T14:54:59.942Z,96016.91
2022-07-31T15:02:04.173Z,96011.28
2022-07-31T15:09:16.237Z,95997.56
2022-07-31T15:16:21.855Z,96005.72
2022-07-31T15:23:25.425Z,95997.56
2022-07-31T15:30:38.411Z,96002.59
2022-07-31T15:37:41.423Z,96007.97
2022-07-31T15:44:44.995Z,95993.03
2022-07-31T15:51:47.287Z,95983.00
2022-07-31T15:58:53.708Z,95978.19
2022-07-31T16:05:57.584Z,95979.53
2022-07-31T16:13:00.056Z,95972.88
2022-07-31T16:20:02.255Z,95975.47
2022-07-31T16:27:06.122Z,95967.28
2022-07-31T16:34:08.708Z,95952.31
2022-07-31T16:41:11.036Z,95949.56
2022-07-31T16:48:14.608Z,95947.06
2022-07-31T16:55:16.821Z,95941.16
2022-07-31T17:02:19.065Z,95947.81
2022-07-31T17:09:24.860Z,95946.88
2022-07-31T17:16:29.328Z,95948.38
2022-07-31T17:23:44.055Z,95948.91
2022-07-31T17:30:54.863Z,95951.09
2022-07-31T17:37:57.371Z,95959.97
2022-07-31T17:45:01.983Z,95956.75
2022-07-31T17:52:06.231Z,95962.69
2022-07-31T17:59:08.541Z,95963.84
2022-07-31T18:06:10.765Z,95963.38
2022-07-31T18:13:14.568Z,95977.34
2022-07-31T18:20:19.212Z,95978.16
2022-07-31T18:27:21.431Z,95961.38
2022-07-31T18:34:24.973Z,95971.84
2022-07-31T18:41:27.482Z,95968.34
2022-07-31T18:48:29.762Z,95969.16
2022-07-31T18:55:33.391Z,95961.41
2022-07-31T19:02:35.709Z,95958.75
2022-07-31T19:09:38.059Z,95960.91
2022-07-31T19:16:41.633Z,95967.06
2022-07-31T19:23:45.330Z,95979.38
2022-07-31T19:30:47.803Z,95983.13
2022-07-31T19:37:57.338Z,95983.63
2022-07-31T19:44:59.693Z,95990.22
2022-07-31T19:52:02.413Z,95997.41
2022-07-31T19:59:06.313Z,95991.75
2022-07-31T20:06:08.566Z,95996.03
2022-07-31T20:13:10.771Z,95997.66
2022-07-31T20:20:16.163Z,96001.28
2022-07-31T20:27:18.696Z,95994.56
2022-07-31T20:34:22.680Z,96003.34
2022-07-31T20:41:27.385Z,96007.22
2022-07-31T20:48:33.070Z,96004.44
2022-07-31T20:55:35.422Z,96007.00
2022-07-31T21:02:38.976Z,96004.22
2022-07-31T21:09:42.863Z,96023.09
2022-07-31T21:16:45.068Z,96023.56
2022-07-31T21:23:48.685Z,96020.75
2022-07-31T21:30:52.943Z,96030.97
2022-07-31T21:37:56.815Z,96029.84
2022-07-31T21:45:03.185Z,96030.34
2022-07-31T21:52:09.383Z,96026.44
2022-07-31T21:59:12.886Z,96035.94
2022-07-31T22:06:34.983Z,96035.22
2022-07-31T22:13:37.188Z,96047.59
2022-07-31T22:20:40.138Z,96051.56
2022-07-31T22:27:52.401Z,96052.16
2022-07-31T22:34:54.662Z,96056.59
2022-07-31T22:41:59.879Z,96054.41
2022-07-31T22:49:04.199Z,96048.16
2022-07-31T22:56:06.465Z,96049.16
2022-07-31T23:03:08.849Z,96044.13
2022-07-31T23:10:12.801Z,96054.47
2022-07-31T23:17:23.277Z,96064.13
2022-07-31T23:24:26.016Z,96063.25
2022-07-31T23:31:29.584Z,96068.59
2022-07-31T23:38:31.807Z,96062.50
2022-07-31T23:45:35.906Z,96058.28
2022-07-31T23:52:39.433Z,96051.72
2022-07-31T23:59:41.662Z,96057.91
